LEBZ

Badajoz Airport

Badajoz, Spain
TAF LEBZ 230500Z 2306/2406 04006KT 9999 FEW040 TX28/2316Z TN15/2406Z PROB30 TEMPO 2315/2319 4000 TSRA SCT035CB
Issued Valid From Valid To
Apr-23 @ 05:00 UTC
(5 hours ago)
Apr-23 @ 06:00 UTC
(4 hours ago)
Apr-24 @ 06:00 UTC
(in 20 hours)
Apr-23 @ 06:00 to Apr-24 @ 06:00
TAF LEBZ 230500Z 2306/2406 04006KT 9999 FEW040 TX28/2316Z TN15/2406Z
Wind Visibility Clouds
40° at 6 knots 10,000+ meters
  • Few at 4,000' AGL
Temporary  (Probability 30%) Apr-23 @ 15:00 to Apr-23 @ 19:00
PROB30 TEMPO 2315/2319 4000 TSRA SCT035CB
Visibility Clouds Conditions
4,007 meters
  • Scattered at 3,500' AGL
  • Thunderstorm
  • Rain
TAF LEBZ 230500Z 2306/2406 04006KT 9999 FEW040 TX28/2316Z TN15/2406Z PROB30 TEMPO 2315/2319 4000 TSRA SCT035CB
Issued Apr-23 @ 05:00 UTC
(5 hours ago)
Valid From Apr-23 @ 06:00 UTC
(4 hours ago)
Valid To Apr-24 @ 06:00 UTC
(in 20 hours)
Apr-23 @ 06:00 - Apr-24 @ 06:00
Wind Visibility
40° at 6 knots 10,000+ meters
Clouds
  • Few at 4,000' AGL
Probability 30% Temporary Apr-23 @ 15:00 - Apr-23 @ 19:00
Clouds
  • Scattered at 3,500' AGL
Conditions
  • Thunderstorm
  • Rain